Time;durP1;ratioP1;P1;durP2;ratioP2;P2;SDS_P1;SDS_P2;PMS_P1;PMS_P2;Temp;Humidity;BMP_temperature;BMP_pressure;BME280_temperature;BME280_humidity;BME280_pressure;Samples;Min_cycle;Max_cycle;Signal;HPM_P1;HPM_P2
2024/01/19 00:01:10;;;;;;;102.97;20.27;;;;;;;;;;5083807;28;20025;-52
2024/01/19 00:03:38;;;;;;;102.93;19.50;;;;;;;;;;5084128;28;20036;-51
2024/01/19 00:06:04;;;;;;;80.90;17.80;;;;;;;;;;5083680;28;20278;-51
2024/01/19 00:08:31;;;;;;;89.93;18.15;;;;;;;;;;5083681;28;20373;-54
2024/01/19 00:11:06;;;;;;;78.97;16.77;;;;;;;;;;5083677;28;20208;-59
2024/01/19 00:13:33;;;;;;;59.42;15.57;;;;;;;;;;5083588;28;20090;-54
2024/01/19 00:15:59;;;;;;;72.95;15.10;;;;;;;;;;5083727;28;20022;-55
2024/01/19 00:18:26;;;;;;;55.40;13.63;;;;;;;;;;5084153;28;20091;-55
2024/01/19 00:20:53;;;;;;;52.15;12.93;;;;;;;;;;5066035;28;20024;-56
2024/01/19 00:23:23;;;;;;;55.30;12.82;;;;;;;;;;5084157;28;20028;-54
2024/01/19 00:25:49;;;;;;;52.00;12.10;;;;;;;;;;5065557;28;20264;-50
2024/01/19 00:28:16;;;;;;;46.92;12.02;;;;;;;;;;5083068;28;20100;-52
2024/01/19 00:30:43;;;;;;;169.10;18.17;;;;;;;;;;5086283;28;20031;-60
2024/01/19 00:33:15;;;;;;;48.58;10.68;;;;;;;;;;5088708;28;20028;-60
2024/01/19 00:35:42;;;;;;;38.95;9.90;;;;;;;;;;5086118;28;20023;-60
2024/01/19 00:38:09;;;;;;;28.45;9.25;;;;;;;;;;5103795;28;20111;-57
2024/01/19 00:40:38;;;;;;;62.17;11.20;;;;;;;;;;5087064;28;20048;-51
2024/01/19 00:43:05;;;;;;;41.63;9.13;;;;;;;;;;5077426;28;20135;-54
2024/01/19 00:45:31;;;;;;;27.08;8.55;;;;;;;;;;5074061;28;20021;-52
2024/01/19 00:47:58;;;;;;;27.52;8.50;;;;;;;;;;5063452;28;20023;-50
2024/01/19 00:50:24;;;;;;;17.13;7.80;;;;;;;;;;5063971;28;20064;-61
2024/01/19 00:52:51;;;;;;;106.85;13.32;;;;;;;;;;5063382;28;20017;-52
2024/01/19 00:55:18;;;;;;;58.95;10.43;;;;;;;;;;5064594;28;20288;-56
2024/01/19 00:57:44;;;;;;;46.63;9.68;;;;;;;;;;5067475;28;20027;-58
2024/01/19 01:00:11;;;;;;;17.77;7.80;;;;;;;;;;5067459;28;20025;-59
2024/01/19 01:02:38;;;;;;;29.35;8.43;;;;;;;;;;5067204;28;20021;-58
2024/01/19 01:05:05;;;;;;;26.50;8.02;;;;;;;;;;5067142;28;20050;-58
2024/01/19 01:07:31;;;;;;;42.50;9.07;;;;;;;;;;5066976;28;20021;-60
2024/01/19 01:09:58;;;;;;;29.25;8.63;;;;;;;;;;5067110;28;20265;-57
2024/01/19 01:12:24;;;;;;;23.73;8.75;;;;;;;;;;5066816;28;20217;-58
2024/01/19 01:14:54;;;;;;;34.17;9.05;;;;;;;;;;5067197;28;20189;-55
2024/01/19 01:17:20;;;;;;;19.88;8.13;;;;;;;;;;5056995;28;20049;-53
2024/01/19 01:19:47;;;;;;;17.10;7.70;;;;;;;;;;5086870;28;20028;-52
2024/01/19 01:22:13;;;;;;;20.45;8.55;;;;;;;;;;5086861;28;20031;-57
2024/01/19 01:24:40;;;;;;;62.28;9.93;;;;;;;;;;5086832;28;20024;-55
2024/01/19 01:27:06;;;;;;;52.30;10.15;;;;;;;;;;5086496;28;20025;-51
2024/01/19 01:29:39;;;;;;;28.45;8.60;;;;;;;;;;5086702;28;20048;-53
2024/01/19 01:32:06;;;;;;;18.17;8.07;;;;;;;;;;5086674;28;20027;-50
2024/01/19 01:34:32;;;;;;;17.25;7.50;;;;;;;;;;5086534;28;20036;-53
2024/01/19 01:37:00;;;;;;;13.07;7.80;;;;;;;;;;5086507;28;20021;-53
2024/01/19 01:39:26;;;;;;;18.65;7.45;;;;;;;;;;5086309;28;20048;-64
2024/01/19 01:41:53;;;;;;;12.25;7.25;;;;;;;;;;5086251;28;20012;-59
2024/01/19 01:44:20;;;;;;;14.27;7.55;;;;;;;;;;5086523;28;20055;-67
2024/01/19 01:46:46;;;;;;;15.60;8.13;;;;;;;;;;5079925;28;20028;-61
2024/01/19 01:49:14;;;;;;;15.55;8.07;;;;;;;;;;5069128;28;20104;-66
2024/01/19 01:51:44;;;;;;;15.52;7.45;;;;;;;;;;5066276;28;20200;-61
2024/01/19 01:54:10;;;;;;;18.73;7.68;;;;;;;;;;5069303;28;20029;-53
2024/01/19 01:56:37;;;;;;;22.50;7.90;;;;;;;;;;5074785;28;20013;-54
2024/01/19 01:59:04;;;;;;;13.52;7.47;;;;;;;;;;5066094;28;20300;-52
2024/01/19 02:01:30;;;;;;;10.55;7.32;;;;;;;;;;5071755;28;20249;-52
2024/01/19 02:03:57;;;;;;;11.60;7.20;;;;;;;;;;5075111;28;20037;-53
2024/01/19 02:06:42;;;;;;;11.93;7.30;;;;;;;;;;5065925;28;20045;-55
2024/01/19 02:09:09;;;;;;;17.73;7.43;;;;;;;;;;5065640;28;20326;-50
2024/01/19 02:11:36;;;;;;;10.85;6.72;;;;;;;;;;5068031;28;20072;-54
2024/01/19 02:14:05;;;;;;;10.38;7.43;;;;;;;;;;5073961;28;20084;-55
2024/01/19 02:16:32;;;;;;;11.43;7.15;;;;;;;;;;5057413;28;20024;-54
2024/01/19 02:18:59;;;;;;;13.98;7.13;;;;;;;;;;5075912;28;20078;-51
2024/01/19 02:21:25;;;;;;;14.75;7.78;;;;;;;;;;5083090;28;20024;-49
2024/01/19 02:24:03;;;;;;;18.00;7.95;;;;;;;;;;5083693;28;20078;-54
2024/01/19 02:26:34;;;;;;;14.25;8.40;;;;;;;;;;5075613;28;20024;-51
2024/01/19 02:29:03;;;;;;;14.30;7.63;;;;;;;;;;5085242;28;20020;-52
2024/01/19 02:31:30;;;;;;;13.75;7.07;;;;;;;;;;5085586;28;20249;-56
2024/01/19 02:33:58;;;;;;;20.30;7.78;;;;;;;;;;5082345;28;20021;-56
2024/01/19 02:36:25;;;;;;;20.73;7.95;;;;;;;;;;5085353;28;20032;-54
2024/01/19 02:38:51;;;;;;;33.22;9.07;;;;;;;;;;5085030;28;20027;-52
2024/01/19 02:41:18;;;;;;;16.17;7.78;;;;;;;;;;5085231;28;20024;-56
2024/01/19 02:43:44;;;;;;;13.13;7.40;;;;;;;;;;5078181;28;20057;-51
2024/01/19 02:46:12;;;;;;;12.55;7.05;;;;;;;;;;5077814;28;20020;-52
2024/01/19 02:48:39;;;;;;;10.88;7.63;;;;;;;;;;5066066;28;20342;-54
2024/01/19 02:51:05;;;;;;;11.52;7.28;;;;;;;;;;5073429;28;20235;-58
2024/01/19 02:53:32;;;;;;;16.83;8.43;;;;;;;;;;5076658;28;20115;-53
2024/01/19 02:56:00;;;;;;;13.05;7.40;;;;;;;;;;5067403;28;20032;-57
2024/01/19 02:58:27;;;;;;;13.85;8.02;;;;;;;;;;5073790;28;20023;-56
2024/01/19 03:00:54;;;;;;;12.13;7.80;;;;;;;;;;5065157;28;20082;-55
2024/01/19 03:03:21;;;;;;;12.40;7.88;;;;;;;;;;5064886;28;20088;-55
2024/01/19 03:05:49;;;;;;;12.82;7.88;;;;;;;;;;5065178;28;20029;-57
2024/01/19 03:08:16;;;;;;;15.80;10.60;;;;;;;;;;5064670;28;20020;-58
2024/01/19 03:10:42;;;;;;;14.45;9.40;;;;;;;;;;5067980;28;20311;-56
2024/01/19 03:13:09;;;;;;;15.40;8.75;;;;;;;;;;5064530;28;20312;-53
2024/01/19 03:15:36;;;;;;;11.65;8.55;;;;;;;;;;5064860;28;20025;-56
2024/01/19 03:18:02;;;;;;;13.82;8.50;;;;;;;;;;5064005;28;20084;-57
2024/01/19 03:20:29;;;;;;;15.85;9.00;;;;;;;;;;5064452;28;20029;-56
2024/01/19 03:22:56;;;;;;;18.80;9.35;;;;;;;;;;5064352;28;20020;-54
2024/01/19 03:25:22;;;;;;;16.38;9.55;;;;;;;;;;5067192;28;20025;-62
2024/01/19 03:27:49;;;;;;;22.85;8.63;;;;;;;;;;5050217;28;20316;-57
2024/01/19 03:30:16;;;;;;;17.73;9.10;;;;;;;;;;5075508;28;20029;-59
2024/01/19 03:32:43;;;;;;;15.57;8.73;;;;;;;;;;5084356;28;20020;-50
2024/01/19 03:35:09;;;;;;;27.17;9.50;;;;;;;;;;5084528;28;20028;-46
2024/01/19 03:37:36;;;;;;;22.83;9.70;;;;;;;;;;5084148;28;20024;-50
2024/01/19 03:40:05;;;;;;;26.17;9.80;;;;;;;;;;5084034;28;20102;-44
2024/01/19 03:42:32;;;;;;;21.17;8.80;;;;;;;;;;5083743;28;20016;-50
2024/01/19 03:44:59;;;;;;;24.38;9.90;;;;;;;;;;5077204;28;20055;-51
2024/01/19 03:47:25;;;;;;;19.33;9.20;;;;;;;;;;5077212;28;20031;-56
2024/01/19 03:49:52;;;;;;;19.50;9.18;;;;;;;;;;5083823;28;20268;-47
2024/01/19 03:52:20;;;;;;;12.65;9.77;;;;;;;;;;5083484;28;20397;-47
2024/01/19 03:54:46;;;;;;;13.32;8.40;;;;;;;;;;5084280;28;20028;-50
2024/01/19 03:57:13;;;;;;;18.00;9.25;;;;;;;;;;5084160;28;20013;-52
2024/01/19 03:59:40;;;;;;;13.50;8.85;;;;;;;;;;5083960;28;20307;-51
2024/01/19 04:02:07;;;;;;;15.30;9.20;;;;;;;;;;5083865;28;20052;-50
2024/01/19 04:04:33;;;;;;;13.85;9.93;;;;;;;;;;5083966;28;20033;-53
2024/01/19 04:07:00;;;;;;;14.20;9.20;;;;;;;;;;5083777;28;20020;-50
2024/01/19 04:09:27;;;;;;;17.33;9.68;;;;;;;;;;5083997;28;20230;-53
2024/01/19 04:12:26;;;;;;;12.85;8.98;;;;;;;;;;5083772;28;20130;-53
2024/01/19 04:14:53;;;;;;;12.80;9.40;;;;;;;;;;5040098;28;20055;-53
2024/01/19 04:17:19;;;;;;;14.50;9.40;;;;;;;;;;5083677;28;20020;-53
2024/01/19 04:19:46;;;;;;;15.68;9.60;;;;;;;;;;5083834;28;20201;-48
2024/01/19 04:22:13;;;;;;;13.57;9.68;;;;;;;;;;5083765;28;20090;-48
2024/01/19 04:24:39;;;;;;;13.65;9.30;;;;;;;;;;5077051;28;20047;-50
2024/01/19 04:27:06;;;;;;;12.25;8.80;;;;;;;;;;5047729;28;20039;-47
2024/01/19 04:29:33;;;;;;;13.55;9.90;;;;;;;;;;5063943;28;20035;-47
2024/01/19 04:31:59;;;;;;;15.65;9.55;;;;;;;;;;5085648;28;20044;-47
2024/01/19 04:34:26;;;;;;;15.32;10.23;;;;;;;;;;5087733;28;20029;-51
2024/01/19 04:36:53;;;;;;;14.45;9.30;;;;;;;;;;5087475;28;20031;-48
2024/01/19 04:39:19;;;;;;;12.00;8.93;;;;;;;;;;5087358;28;20236;-47
2024/01/19 04:41:46;;;;;;;11.95;9.40;;;;;;;;;;5087315;28;20016;-44
2024/01/19 04:44:12;;;;;;;11.73;9.00;;;;;;;;;;5087495;28;20244;-45
2024/01/19 04:46:39;;;;;;;13.52;9.75;;;;;;;;;;5087515;28;20025;-47
2024/01/19 04:49:06;;;;;;;13.98;9.82;;;;;;;;;;5081106;28;20029;-48
2024/01/19 04:51:32;;;;;;;10.48;9.13;;;;;;;;;;5067478;28;20021;-47
2024/01/19 04:53:59;;;;;;;11.95;9.40;;;;;;;;;;5067389;28;20213;-48
2024/01/19 04:56:26;;;;;;;13.32;10.05;;;;;;;;;;5067502;28;20028;-49
2024/01/19 04:58:52;;;;;;;13.32;10.68;;;;;;;;;;5067152;28;20204;-49
2024/01/19 05:01:19;;;;;;;15.02;10.02;;;;;;;;;;5067109;28;20016;-45
2024/01/19 05:03:45;;;;;;;13.05;9.65;;;;;;;;;;5066976;28;20370;-47
2024/01/19 05:06:15;;;;;;;11.93;9.57;;;;;;;;;;5067410;28;20092;-46
2024/01/19 05:08:42;;;;;;;16.30;10.18;;;;;;;;;;5071044;28;20035;-46
2024/01/19 05:11:13;;;;;;;13.10;9.93;;;;;;;;;;5079767;28;20048;-53
2024/01/19 05:13:41;;;;;;;12.37;10.00;;;;;;;;;;5086263;28;20050;-52
2024/01/19 05:16:08;;;;;;;12.57;9.65;;;;;;;;;;5075991;28;20269;-50
2024/01/19 05:18:35;;;;;;;14.68;11.00;;;;;;;;;;5066719;28;20020;-44
2024/01/19 05:21:02;;;;;;;15.13;11.00;;;;;;;;;;5067245;28;20029;-46
2024/01/19 05:23:31;;;;;;;12.48;9.77;;;;;;;;;;5066693;28;20080;-46
2024/01/19 05:25:58;;;;;;;13.65;9.90;;;;;;;;;;5066944;28;20048;-51
2024/01/19 05:28:24;;;;;;;15.27;10.07;;;;;;;;;;5066659;28;20076;-46
2024/01/19 05:30:51;;;;;;;14.05;10.35;;;;;;;;;;5067206;28;20024;-52
2024/01/19 05:33:17;;;;;;;16.92;10.52;;;;;;;;;;5066776;28;20020;-50
2024/01/19 05:35:44;;;;;;;13.77;9.25;;;;;;;;;;5066912;28;20020;-51
2024/01/19 05:38:11;;;;;;;14.25;9.75;;;;;;;;;;5066403;28;20056;-49
2024/01/19 05:40:38;;;;;;;12.57;10.57;;;;;;;;;;5066070;28;20049;-46
2024/01/19 05:43:04;;;;;;;13.30;10.23;;;;;;;;;;5066473;28;20020;-53
2024/01/19 05:45:31;;;;;;;12.32;10.15;;;;;;;;;;5066745;28;20024;-53
2024/01/19 05:47:57;;;;;;;12.27;10.27;;;;;;;;;;5066176;28;20027;-44
2024/01/19 05:50:24;;;;;;;14.38;9.90;;;;;;;;;;5066213;28;20112;-48
2024/01/19 05:52:51;;;;;;;17.02;10.43;;;;;;;;;;5066211;28;20021;-46
2024/01/19 05:55:17;;;;;;;11.75;9.68;;;;;;;;;;5066588;28;20021;-57
2024/01/19 05:57:44;;;;;;;14.10;10.18;;;;;;;;;;5066158;28;20127;-50
2024/01/19 06:00:11;;;;;;;13.80;10.10;;;;;;;;;;5066786;28;20332;-45
2024/01/19 06:02:37;;;;;;;14.15;10.02;;;;;;;;;;5066289;28;20076;-52
2024/01/19 06:05:04;;;;;;;14.23;9.90;;;;;;;;;;5066424;28;20025;-45
2024/01/19 06:07:32;;;;;;;13.15;9.82;;;;;;;;;;5066403;28;20028;-49
2024/01/19 06:09:59;;;;;;;14.00;10.23;;;;;;;;;;5066221;28;20035;-50
2024/01/19 06:12:30;;;;;;;13.05;9.45;;;;;;;;;;5065764;28;20020;-49
2024/01/19 06:14:57;;;;;;;15.27;9.90;;;;;;;;;;5066176;28;20070;-49
2024/01/19 06:17:24;;;;;;;13.00;10.07;;;;;;;;;;5065862;28;20197;-46
2024/01/19 06:19:50;;;;;;;13.80;9.45;;;;;;;;;;5066126;28;20033;-55
2024/01/19 06:22:17;;;;;;;12.52;9.52;;;;;;;;;;5085757;28;20066;-47
2024/01/19 06:24:44;;;;;;;12.82;9.38;;;;;;;;;;5078968;28;20295;-48
2024/01/19 06:27:13;;;;;;;16.08;10.57;;;;;;;;;;5065452;28;20029;-46
2024/01/19 06:29:40;;;;;;;13.73;9.60;;;;;;;;;;5064797;28;20033;-44
2024/01/19 06:32:07;;;;;;;12.57;9.18;;;;;;;;;;5065745;28;20312;-46
2024/01/19 06:34:36;;;;;;;11.45;9.65;;;;;;;;;;5065748;28;20090;-46
2024/01/19 06:37:03;;;;;;;13.90;10.55;;;;;;;;;;5065899;28;20216;-46
2024/01/19 06:39:29;;;;;;;12.00;9.63;;;;;;;;;;5065058;28;20243;-51
2024/01/19 06:41:56;;;;;;;17.80;10.50;;;;;;;;;;5065306;28;20402;-46
2024/01/19 06:44:22;;;;;;;19.25;9.98;;;;;;;;;;5065294;28;20071;-46
2024/01/19 06:46:49;;;;;;;15.10;10.32;;;;;;;;;;5065516;28;20036;-45
2024/01/19 06:49:36;;;;;;;16.20;9.88;;;;;;;;;;5065144;28;20044;-45
2024/01/19 06:52:05;;;;;;;41.92;11.38;;;;;;;;;;5067562;28;20058;-48
2024/01/19 06:54:34;;;;;;;26.00;10.65;;;;;;;;;;5084561;28;20017;-49
2024/01/19 06:57:01;;;;;;;18.92;9.43;;;;;;;;;;5085302;28;20016;-49
2024/01/19 06:59:28;;;;;;;22.02;9.60;;;;;;;;;;5085146;28;20242;-52
2024/01/19 07:01:54;;;;;;;20.88;9.35;;;;;;;;;;5084980;28;20021;-47
2024/01/19 07:04:21;;;;;;;19.55;9.73;;;;;;;;;;5073008;28;20036;-48
2024/01/19 07:06:48;;;;;;;20.75;10.00;;;;;;;;;;5065241;28;20024;-47
2024/01/19 07:09:15;;;;;;;268.27;24.25;;;;;;;;;;5065051;28;20048;-45
2024/01/19 07:11:42;;;;;;;107.60;14.77;;;;;;;;;;5065284;28;20328;-51
2024/01/19 07:14:09;;;;;;;43.15;11.40;;;;;;;;;;5065042;28;20041;-48
2024/01/19 07:16:43;;;;;;;53.30;11.98;;;;;;;;;;5064644;28;20045;-51
2024/01/19 07:19:10;;;;;;;40.50;11.57;;;;;;;;;;5064836;28;20025;-47
2024/01/19 07:21:38;;;;;;;27.58;10.50;;;;;;;;;;5064545;28;20076;-48
2024/01/19 07:24:05;;;;;;;28.35;10.90;;;;;;;;;;5064705;28;20021;-54
2024/01/19 07:26:32;;;;;;;28.42;9.90;;;;;;;;;;5064714;28;20084;-45
2024/01/19 07:28:59;;;;;;;24.80;10.15;;;;;;;;;;5064223;28;20029;-52
2024/01/19 07:31:26;;;;;;;24.52;10.05;;;;;;;;;;5064809;28;20055;-46
2024/01/19 07:33:53;;;;;;;23.92;10.25;;;;;;;;;;5064589;28;20017;-47
2024/01/19 07:36:20;;;;;;;21.77;9.88;;;;;;;;;;5064425;28;20040;-49
2024/01/19 07:38:46;;;;;;;16.52;9.93;;;;;;;;;;5064831;28;20035;-53
2024/01/19 07:41:13;;;;;;;15.50;9.75;;;;;;;;;;5064361;28;20064;-49
2024/01/19 07:43:40;;;;;;;13.30;9.30;;;;;;;;;;5064239;28;20048;-50
2024/01/19 07:46:06;;;;;;;14.95;9.90;;;;;;;;;;5064945;28;20029;-47
2024/01/19 07:48:33;;;;;;;14.98;9.15;;;;;;;;;;5064529;28;20059;-49
2024/01/19 07:51:00;;;;;;;14.77;9.70;;;;;;;;;;5064834;28;20032;-54
2024/01/19 07:53:26;;;;;;;13.88;9.13;;;;;;;;;;5063989;28;20076;-44
2024/01/19 07:55:53;;;;;;;12.40;9.68;;;;;;;;;;5064681;28;20021;-51
2024/01/19 07:58:19;;;;;;;13.02;9.80;;;;;;;;;;5064231;28;20332;-44
2024/01/19 08:00:46;;;;;;;11.88;9.27;;;;;;;;;;5064630;28;20036;-45
2024/01/19 08:03:13;;;;;;;13.38;9.60;;;;;;;;;;5064205;28;20013;-47
2024/01/19 08:05:40;;;;;;;13.70;9.52;;;;;;;;;;5070751;28;20247;-47
2024/01/19 08:08:07;;;;;;;13.93;9.15;;;;;;;;;;5063864;28;20024;-50
2024/01/19 08:10:35;;;;;;;11.32;9.75;;;;;;;;;;5064261;28;20048;-47
2024/01/19 08:13:02;;;;;;;10.25;9.02;;;;;;;;;;5063661;28;20076;-50
2024/01/19 08:15:28;;;;;;;11.40;9.65;;;;;;;;;;5063986;28;20035;-48
2024/01/19 08:17:55;;;;;;;12.32;9.35;;;;;;;;;;5063992;28;20017;-48
2024/01/19 08:20:22;;;;;;;11.70;9.60;;;;;;;;;;5064427;28;20021;-47
2024/01/19 08:22:49;;;;;;;12.38;9.20;;;;;;;;;;5063604;28;20024;-49
2024/01/19 08:25:16;;;;;;;11.75;9.40;;;;;;;;;;5064396;28;20025;-46
2024/01/19 08:27:43;;;;;;;11.98;9.80;;;;;;;;;;5063758;28;20240;-48
2024/01/19 08:30:10;;;;;;;10.90;9.32;;;;;;;;;;5063565;28;20091;-46
2024/01/19 08:32:37;;;;;;;11.73;9.73;;;;;;;;;;5063584;28;20017;-46
2024/01/19 08:35:08;;;;;;;12.20;9.00;;;;;;;;;;5064284;28;20067;-45
2024/01/19 08:37:43;;;;;;;11.07;9.43;;;;;;;;;;5063519;28;20028;-51
2024/01/19 08:40:11;;;;;;;10.63;8.50;;;;;;;;;;5063508;28;20108;-44
2024/01/19 08:42:38;;;;;;;10.80;9.52;;;;;;;;;;5063490;28;20023;-46
2024/01/19 08:45:05;;;;;;;12.82;9.57;;;;;;;;;;5064277;28;20194;-49
2024/01/19 08:47:32;;;;;;;14.15;9.95;;;;;;;;;;5063674;28;20289;-54
2024/01/19 08:50:02;;;;;;;13.15;9.38;;;;;;;;;;5064111;28;20037;-52
2024/01/19 08:52:29;;;;;;;12.25;9.27;;;;;;;;;;5063836;28;20017;-52
2024/01/19 08:54:56;;;;;;;13.80;9.63;;;;;;;;;;5063950;28;20186;-54
2024/01/19 08:57:23;;;;;;;10.93;9.23;;;;;;;;;;5063556;28;20017;-49
2024/01/19 08:59:51;;;;;;;11.93;9.43;;;;;;;;;;5063822;28;20029;-42
2024/01/19 09:02:17;;;;;;;11.82;9.23;;;;;;;;;;5063435;28;20013;-44
2024/01/19 09:04:44;;;;;;;13.55;9.43;;;;;;;;;;5063523;28;20029;-53
2024/01/19 09:07:10;;;;;;;13.52;9.07;;;;;;;;;;5063521;28;20383;-51
2024/01/19 09:09:37;;;;;;;11.43;9.27;;;;;;;;;;5063272;28;20071;-43
2024/01/19 09:12:04;;;;;;;16.25;10.38;;;;;;;;;;5063344;28;20017;-45
2024/01/19 09:14:31;;;;;;;12.48;9.38;;;;;;;;;;5063316;28;20021;-52
2024/01/19 09:16:58;;;;;;;13.70;9.13;;;;;;;;;;5065092;28;20350;-47
2024/01/19 09:19:25;;;;;;;12.00;9.00;;;;;;;;;;5067010;28;20032;-44
2024/01/19 09:21:51;;;;;;;11.95;9.38;;;;;;;;;;5066816;28;20021;-55
2024/01/19 09:24:18;;;;;;;19.50;9.40;;;;;;;;;;5066939;28;20231;-47
2024/01/19 09:26:44;;;;;;;12.25;9.63;;;;;;;;;;5048910;28;20066;-50
2024/01/19 09:29:11;;;;;;;19.23;10.02;;;;;;;;;;5066400;28;20032;-50
2024/01/19 09:31:44;;;;;;;15.68;9.07;;;;;;;;;;5066740;28;20212;-48
2024/01/19 09:34:11;;;;;;;15.27;9.25;;;;;;;;;;5066613;28;20027;-48
2024/01/19 09:36:41;;;;;;;13.10;9.32;;;;;;;;;;5066454;28;20035;-53
2024/01/19 09:39:08;;;;;;;15.10;9.15;;;;;;;;;;5066420;28;20047;-53
2024/01/19 09:41:39;;;;;;;13.75;9.48;;;;;;;;;;5066396;28;20193;-50
2024/01/19 09:44:10;;;;;;;14.55;9.48;;;;;;;;;;5066544;28;20269;-51
2024/01/19 09:46:43;;;;;;;15.63;9.27;;;;;;;;;;5066425;28;20028;-50
2024/01/19 09:49:39;;;;;;;14.38;9.52;;;;;;;;;;5048200;28;20036;-52
2024/01/19 09:52:25;;;;;;;15.82;9.48;;;;;;;;;;5053801;28;20116;-50
2024/01/19 09:54:52;;;;;;;15.20;9.85;;;;;;;;;;5066471;28;20095;-49
2024/01/19 09:57:18;;;;;;;20.65;9.80;;;;;;;;;;5066219;28;20204;-51
2024/01/19 09:59:45;;;;;;;14.80;10.27;;;;;;;;;;5066433;28;20031;-49
2024/01/19 10:02:15;;;;;;;15.60;10.23;;;;;;;;;;5066192;28;20031;-49
2024/01/19 10:04:42;;;;;;;14.93;10.32;;;;;;;;;;5066237;28;20033;-49
2024/01/19 10:07:09;;;;;;;15.15;9.98;;;;;;;;;;5066345;28;20017;-47
2024/01/19 10:09:36;;;;;;;16.75;10.13;;;;;;;;;;5066275;28;20067;-48
2024/01/19 10:12:06;;;;;;;17.70;9.68;;;;;;;;;;5065902;28;20040;-47
2024/01/19 10:14:33;;;;;;;14.23;9.52;;;;;;;;;;5066229;28;20039;-48
2024/01/19 10:17:00;;;;;;;16.98;9.77;;;;;;;;;;5065803;28;20021;-48
2024/01/19 10:19:27;;;;;;;14.27;8.93;;;;;;;;;;5065776;28;20037;-50
2024/01/19 10:21:54;;;;;;;14.75;9.65;;;;;;;;;;5065955;28;20092;-49
2024/01/19 10:24:21;;;;;;;13.57;9.27;;;;;;;;;;5065630;28;20028;-51
2024/01/19 10:26:55;;;;;;;16.75;10.20;;;;;;;;;;5065893;28;20047;-53
2024/01/19 10:29:22;;;;;;;13.52;9.25;;;;;;;;;;5065550;28;20020;-49
2024/01/19 10:31:49;;;;;;;14.30;9.80;;;;;;;;;;5065515;28;20020;-50
2024/01/19 10:34:28;;;;;;;17.40;10.98;;;;;;;;;;5065360;28;20029;-53
2024/01/19 10:36:55;;;;;;;15.52;10.30;;;;;;;;;;5065382;28;20055;-53
2024/01/19 10:39:31;;;;;;;17.33;10.65;;;;;;;;;;5065489;28;20056;-55
2024/01/19 10:42:08;;;;;;;16.92;10.02;;;;;;;;;;5065549;28;20023;-54
2024/01/19 10:44:35;;;;;;;18.27;10.45;;;;;;;;;;5065454;28;20060;-53
2024/01/19 10:47:01;;;;;;;16.55;10.45;;;;;;;;;;5064993;28;20020;-53
2024/01/19 10:49:28;;;;;;;20.98;10.05;;;;;;;;;;5065199;28;20039;-52
2024/01/19 10:51:56;;;;;;;21.05;10.93;;;;;;;;;;5065463;28;20021;-49
2024/01/19 10:54:27;;;;;;;22.27;10.95;;;;;;;;;;5064949;28;20040;-46
2024/01/19 10:57:04;;;;;;;29.17;10.20;;;;;;;;;;5073876;28;20343;-52
2024/01/19 10:59:30;;;;;;;20.73;10.35;;;;;;;;;;5065188;28;20078;-53
2024/01/19 11:02:01;;;;;;;22.38;10.85;;;;;;;;;;5064841;28;20205;-47
2024/01/19 11:04:28;;;;;;;24.58;10.73;;;;;;;;;;5064942;28;20357;-46
2024/01/19 11:06:54;;;;;;;26.08;11.07;;;;;;;;;;5064434;28;20194;-46
2024/01/19 11:09:21;;;;;;;21.17;11.20;;;;;;;;;;5064450;28;20028;-46
2024/01/19 11:12:01;;;;;;;21.98;10.48;;;;;;;;;;5064759;28;20027;-46
2024/01/19 11:14:28;;;;;;;19.27;10.60;;;;;;;;;;5064686;28;20044;-45
2024/01/19 11:16:55;;;;;;;20.50;10.30;;;;;;;;;;5064653;28;20021;-45
2024/01/19 11:19:25;;;;;;;21.63;11.00;;;;;;;;;;5064491;28;20025;-48
2024/01/19 11:21:52;;;;;;;46.50;13.55;;;;;;;;;;5065094;28;20219;-59
2024/01/19 11:24:20;;;;;;;49.65;13.20;;;;;;;;;;5064599;28;20025;-55
2024/01/19 11:26:50;;;;;;;46.88;12.88;;;;;;;;;;5064416;28;20025;-54
2024/01/19 11:29:20;;;;;;;44.38;12.02;;;;;;;;;;5064172;28;20071;-53
2024/01/19 11:31:47;;;;;;;60.90;13.68;;;;;;;;;;5064470;28;20181;-57
2024/01/19 11:34:32;;;;;;;38.53;11.65;;;;;;;;;;5064105;28;20025;-58
2024/01/19 11:36:59;;;;;;;42.08;12.73;;;;;;;;;;5064536;28;20021;-59
2024/01/19 11:39:46;;;;;;;45.33;13.15;;;;;;;;;;5063983;28;20068;-55
2024/01/19 11:42:32;;;;;;;36.55;13.20;;;;;;;;;;5062693;28;20186;-54
2024/01/19 11:44:59;;;;;;;46.08;14.52;;;;;;;;;;5047539;28;20048;-57
2024/01/19 11:47:38;;;;;;;32.83;13.73;;;;;;;;;;5063948;28;20021;-55
2024/01/19 11:50:12;;;;;;;36.40;13.52;;;;;;;;;;5064371;28;20036;-54
2024/01/19 11:52:40;;;;;;;30.23;13.05;;;;;;;;;;5063880;28;20025;-55
2024/01/19 11:55:24;;;;;;;35.63;12.45;;;;;;;;;;5064327;28;20128;-60
2024/01/19 11:57:51;;;;;;;32.17;12.77;;;;;;;;;;5064107;28;20344;-55
2024/01/19 12:00:19;;;;;;;28.33;11.98;;;;;;;;;;5064467;28;20091;-56
2024/01/19 12:02:46;;;;;;;45.10;13.35;;;;;;;;;;5063972;28;20041;-54
2024/01/19 12:05:13;;;;;;;36.88;12.10;;;;;;;;;;5064058;28;20189;-56
2024/01/19 12:07:41;;;;;;;44.50;13.05;;;;;;;;;;5064109;28;20076;-55
2024/01/19 12:10:12;;;;;;;37.60;12.02;;;;;;;;;;5063731;28;20317;-58
2024/01/19 12:12:39;;;;;;;23.95;12.40;;;;;;;;;;5063872;28;20021;-57
2024/01/19 12:15:10;;;;;;;28.65;11.98;;;;;;;;;;5063965;28;20028;-57
2024/01/19 12:17:44;;;;;;;26.30;11.02;;;;;;;;;;5063622;28;20102;-57
2024/01/19 12:20:15;;;;;;;30.02;11.68;;;;;;;;;;5063849;28;20213;-57
2024/01/19 12:22:46;;;;;;;19.80;10.63;;;;;;;;;;5063481;28;20031;-58
2024/01/19 12:25:16;;;;;;;21.85;10.82;;;;;;;;;;5063947;28;20029;-57
2024/01/19 12:27:43;;;;;;;24.30;11.40;;;;;;;;;;5063630;28;20017;-56
2024/01/19 12:30:13;;;;;;;27.58;10.68;;;;;;;;;;5063740;28;20078;-55
2024/01/19 12:32:40;;;;;;;21.77;10.73;;;;;;;;;;5063841;28;20209;-61
2024/01/19 12:35:07;;;;;;;20.63;10.82;;;;;;;;;;5064000;28;20305;-59
2024/01/19 12:37:34;;;;;;;25.70;10.23;;;;;;;;;;5063822;28;20020;-61
2024/01/19 12:40:27;;;;;;;21.92;11.50;;;;;;;;;;5063699;28;20344;-57
2024/01/19 12:42:54;;;;;;;25.90;10.70;;;;;;;;;;5059705;28;20037;-57
2024/01/19 12:45:21;;;;;;;24.77;10.82;;;;;;;;;;5063842;28;20036;-57
2024/01/19 12:47:49;;;;;;;20.27;10.98;;;;;;;;;;5063646;28;20025;-57
2024/01/19 12:50:17;;;;;;;17.67;10.68;;;;;;;;;;5069812;28;20386;-57
2024/01/19 12:52:45;;;;;;;22.98;10.48;;;;;;;;;;5086369;28;20017;-58
2024/01/19 12:55:12;;;;;;;21.00;10.40;;;;;;;;;;5067472;28;20028;-58
2024/01/19 12:57:40;;;;;;;22.92;10.10;;;;;;;;;;5067169;28;20454;-57
2024/01/19 13:00:18;;;;;;;89.32;15.88;;;;;;;;;;5067743;28;20088;-57
2024/01/19 13:02:45;;;;;;;46.80;12.43;;;;;;;;;;5081184;28;20193;-60
2024/01/19 13:05:21;;;;;;;72.90;12.38;;;;;;;;;;5074291;28;20071;-58
2024/01/19 13:07:49;;;;;;;39.33;11.60;;;;;;;;;;5071737;28;20308;-56
2024/01/19 13:10:17;;;;;;;55.03;11.95;;;;;;;;;;5073661;28;20043;-56
2024/01/19 13:12:44;;;;;;;40.00;11.32;;;;;;;;;;5072086;28;20021;-54
2024/01/19 13:15:13;;;;;;;28.25;10.68;;;;;;;;;;5077091;28;20021;-55
2024/01/19 13:17:39;;;;;;;35.08;10.55;;;;;;;;;;5068075;28;20082;-60
2024/01/19 13:20:11;;;;;;;28.40;9.85;;;;;;;;;;5079218;28;20028;-58
2024/01/19 13:22:40;;;;;;;33.50;10.48;;;;;;;;;;5067066;28;20020;-57
2024/01/19 13:25:07;;;;;;;27.40;10.27;;;;;;;;;;5068628;28;20070;-57
2024/01/19 13:27:35;;;;;;;23.35;9.98;;;;;;;;;;5072339;28;20029;-55
2024/01/19 13:30:05;;;;;;;20.60;9.77;;;;;;;;;;5074028;28;20029;-57
2024/01/19 13:32:31;;;;;;;24.35;9.23;;;;;;;;;;5081819;28;20025;-54
2024/01/19 13:34:58;;;;;;;23.98;9.15;;;;;;;;;;5076674;28;20024;-59
2024/01/19 13:37:25;;;;;;;21.83;8.88;;;;;;;;;;5085896;28;20024;-59
2024/01/19 13:39:52;;;;;;;26.33;8.98;;;;;;;;;;5086680;28;20067;-53
2024/01/19 13:42:23;;;;;;;23.80;9.07;;;;;;;;;;5086349;28;20048;-57
2024/01/19 13:44:50;;;;;;;28.10;9.63;;;;;;;;;;5086512;28;20040;-53
2024/01/19 13:47:16;;;;;;;24.65;9.15;;;;;;;;;;5086774;28;20021;-55
2024/01/19 13:49:43;;;;;;;18.33;8.90;;;;;;;;;;5086464;28;20032;-54
2024/01/19 13:52:10;;;;;;;17.52;8.52;;;;;;;;;;5086358;28;20377;-53
2024/01/19 13:54:37;;;;;;;14.07;7.80;;;;;;;;;;5086825;28;20036;-55
2024/01/19 13:57:04;;;;;;;32.10;9.38;;;;;;;;;;5086011;28;20021;-52
2024/01/19 13:59:30;;;;;;;16.80;9.10;;;;;;;;;;5086381;28;20032;-54
2024/01/19 14:01:57;;;;;;;22.00;8.77;;;;;;;;;;5086004;28;20040;-60
2024/01/19 14:04:27;;;;;;;17.40;8.50;;;;;;;;;;5086486;28;20032;-63
2024/01/19 14:06:53;;;;;;;17.40;7.88;;;;;;;;;;5086329;28;20024;-56
2024/01/19 14:09:20;;;;;;;16.60;8.32;;;;;;;;;;5086062;28;20024;-59
2024/01/19 14:11:48;;;;;;;16.65;7.68;;;;;;;;;;5086078;28;20012;-54
2024/01/19 14:14:16;;;;;;;23.30;7.70;;;;;;;;;;5086391;28;20025;-55
2024/01/19 14:16:43;;;;;;;22.25;7.72;;;;;;;;;;5086053;28;20012;-53
2024/01/19 14:19:09;;;;;;;20.58;7.78;;;;;;;;;;5086029;28;20036;-54
2024/01/19 14:21:36;;;;;;;18.98;7.82;;;;;;;;;;5085858;28;20020;-56
2024/01/19 14:24:02;;;;;;;16.98;8.07;;;;;;;;;;5085807;28;20020;-57
2024/01/19 14:26:32;;;;;;;19.92;8.43;;;;;;;;;;5085868;28;20017;-59
2024/01/19 14:29:00;;;;;;;16.77;8.15;;;;;;;;;;5085475;28;20030;-55
2024/01/19 14:31:27;;;;;;;19.38;8.70;;;;;;;;;;5085747;28;20211;-56